ADDS METAR Data

Data at: 0746 UTC 24 Oct 2017

METAR for:KBHB (Bar Harbor/Hancock C, ME, US)
Text:KBHB 240722Z AUTO 20004KT 9SM FEW004 OVC060 15/14 A3018 RMK AO2 PNO $
Temperature: 15.0°C ( 59°F)
Dewpoint: 14.0°C ( 57°F) [RH = 94%]
Pressure (altimeter):30.18 inches Hg (1022.1 mb)
Winds:from the SSW (200 degrees) at 5 MPH (4 knots; 2.1 m/s)
Visibility: 9 sm ( 14 km)
Ceiling:6000 feet AGL
Clouds: few clouds at 400 feet AGL, overcast cloud deck at 6000 feet AGL
QC Flag:automated observation with no human augmentation; SOME DATA ABOVE MAY BE INACCURATE!!!"$" is an indication the sensor requires maintenance.